Main page
Satellite images 10-day forecastsClimateMarine weather Cyclones Lightning AirportsFAQ Newsletter About
Weather : Europe Africa North America South America Asia Australia-Oceania Others
Languages Contact

Podgorica, Montenegro

Podgorica Airport

latitude: 42-26N, longitude: 019-17E, elevation: 53 m


METAR: LYPG 020800Z VRB02KT CAVOK 30/13 Q1011 NOSIG
TAF: LYPG 020500Z 0206/0306 18005KT CAVOK TX36/0213Z TN21/0304Z

Time: 10:29 (08:29 UTC)

Current weather observation

The report was made 29 minutes ago, at 08:00 UTC
Wind 2 kt from variable directions
Temperature 30°C
Humidity 35%
Pressure 1011 hPa
Visibility 10 km or more
no clouds below 1500 m and no cumulonimbus

Change units

Forecast

The report was made 3 hours and 29 minutes ago, at 05:00 UTC
Forecast valid from 02 at 06 UTC to 03 at 06 UTC
Wind 5 kt from the South
Visibility 10 km or more
no clouds below 1500 m and no cumulonimbus
The information on this site is subject to a disclaimer
Weather : Europe Africa North America South America Asia Australia-Oceania Others
Satellite images 10-day forecastsClimateMarine weather Cyclones Lightning AirportsFAQ Languages Contact Newsletter About